Time;durP1;ratioP1;P1;durP2;ratioP2;P2;SDS_P1;SDS_P2;PMS_P1;PMS_P2;Temp;Humidity;BMP_temperature;BMP_pressure;BME280_temperature;BME280_humidity;BME280_pressure;Samples;Min_cycle;Max_cycle;Signal;HPM_P1;HPM_P2
2021/04/27 00:01:56;;;;;;;1.80;1.60;;;;;;;;;;5115672;27;20304;-60
2021/04/27 00:04:21;;;;;;;3.40;2.03;;;;;;;;;;5098374;27;20215;-59
2021/04/27 00:06:47;;;;;;;3.20;2.27;;;;;;;;;;5115503;27;20657;-59
2021/04/27 00:09:12;;;;;;;3.90;2.20;;;;;;;;;;5109214;27;20284;-60
2021/04/27 00:11:37;;;;;;;2.30;1.60;;;;;;;;;;5107890;27;20220;-61
2021/04/27 00:14:05;;;;;;;1.83;1.47;;;;;;;;;;5101584;27;20318;-60
2021/04/27 00:16:31;;;;;;;2.50;1.87;;;;;;;;;;5102075;27;20579;-59
2021/04/27 00:18:56;;;;;;;3.90;1.60;;;;;;;;;;5108451;27;20451;-62
2021/04/27 00:21:21;;;;;;;2.60;1.77;;;;;;;;;;5108522;27;20303;-60
2021/04/27 00:23:46;;;;;;;3.23;1.77;;;;;;;;;;5108638;27;20234;-60
2021/04/27 00:26:12;;;;;;;4.93;1.80;;;;;;;;;;5106173;27;20230;-60
2021/04/27 00:28:37;;;;;;;3.07;1.60;;;;;;;;;;5100744;27;20219;-60
2021/04/27 00:31:03;;;;;;;2.70;1.70;;;;;;;;;;5103340;27;20219;-59
2021/04/27 00:33:28;;;;;;;2.90;2.10;;;;;;;;;;5112544;27;20576;-58
2021/04/27 00:35:53;;;;;;;2.60;1.60;;;;;;;;;;5115116;27;20232;-61
2021/04/27 00:38:18;;;;;;;2.97;1.83;;;;;;;;;;5101096;27;20242;-60
2021/04/27 00:40:44;;;;;;;4.50;2.23;;;;;;;;;;5103384;27;20748;-59
2021/04/27 00:43:09;;;;;;;4.00;2.00;;;;;;;;;;5108176;27;20243;-60
2021/04/27 00:45:34;;;;;;;3.43;2.20;;;;;;;;;;5104652;27;20218;-61
2021/04/27 00:48:00;;;;;;;2.90;2.03;;;;;;;;;;5101092;27;20228;-60
2021/04/27 00:50:30;;;;;;;2.53;1.90;;;;;;;;;;5103473;27;20231;-60
2021/04/27 00:52:56;;;;;;;3.40;2.57;;;;;;;;;;5108048;27;20387;-61
2021/04/27 00:55:22;;;;;;;2.87;1.80;;;;;;;;;;5105692;27;20455;-60
2021/04/27 00:57:48;;;;;;;3.00;2.03;;;;;;;;;;5100423;27;20223;-61
2021/04/27 01:00:16;;;;;;;3.97;2.20;;;;;;;;;;5114389;27;20957;-60
2021/04/27 01:02:41;;;;;;;4.87;2.20;;;;;;;;;;5107918;27;20219;-61
2021/04/27 01:05:13;;;;;;;2.53;2.00;;;;;;;;;;5104191;27;20432;-61
2021/04/27 01:07:45;;;;;;;5.60;2.50;;;;;;;;;;5100437;28;20230;-61
2021/04/27 01:10:11;;;;;;;2.20;1.80;;;;;;;;;;5113872;27;20436;-60
2021/04/27 01:12:42;;;;;;;4.40;2.53;;;;;;;;;;5100363;27;20787;-59
2021/04/27 01:15:11;;;;;;;3.10;2.13;;;;;;;;;;5099825;28;20460;-61
2021/04/27 01:17:37;;;;;;;2.50;2.00;;;;;;;;;;5105151;27;20440;-62
2021/04/27 01:20:17;;;;;;;3.10;2.10;;;;;;;;;;5108275;27;20911;-60
2021/04/27 01:22:57;;;;;;;3.30;2.60;;;;;;;;;;5113094;27;20430;-61
2021/04/27 01:25:55;;;;;;;3.87;2.43;;;;;;;;;;5100708;27;20430;-61
2021/04/27 01:28:22;;;;;;;3.67;2.37;;;;;;;;;;5100097;27;20912;-61
2021/04/27 01:30:48;;;;;;;3.53;2.23;;;;;;;;;;5103049;27;20525;-61
2021/04/27 01:33:19;;;;;;;6.73;2.67;;;;;;;;;;5096791;27;20472;-59
2021/04/27 01:35:45;;;;;;;2.80;2.50;;;;;;;;;;5103138;28;20515;-60
2021/04/27 01:38:12;;;;;;;4.17;2.67;;;;;;;;;;5106049;27;20483;-60
2021/04/27 01:40:37;;;;;;;3.33;2.53;;;;;;;;;;5104326;27;20632;-61
2021/04/27 01:43:03;;;;;;;3.30;2.20;;;;;;;;;;5100075;27;20487;-61
2021/04/27 01:45:30;;;;;;;5.47;2.80;;;;;;;;;;5103284;27;20223;-60
2021/04/27 01:47:57;;;;;;;3.17;2.70;;;;;;;;;;5106451;27;20529;-60
2021/04/27 01:50:23;;;;;;;2.93;2.10;;;;;;;;;;5103708;27;20494;-61
2021/04/27 01:52:49;;;;;;;2.80;2.40;;;;;;;;;;5100438;27;20492;-60
2021/04/27 01:55:15;;;;;;;4.87;2.80;;;;;;;;;;5103024;27;20845;-59
2021/04/27 01:57:40;;;;;;;5.40;3.10;;;;;;;;;;5109522;27;20466;-60
2021/04/27 02:00:09;;;;;;;4.97;2.70;;;;;;;;;;5108890;28;20475;-59
2021/04/27 02:02:34;;;;;;;3.57;2.67;;;;;;;;;;5112472;27;20544;-60
2021/04/27 02:04:59;;;;;;;3.97;3.10;;;;;;;;;;5106539;27;20468;-60
2021/04/27 02:07:24;;;;;;;5.43;3.10;;;;;;;;;;5113205;27;20238;-59
2021/04/27 02:09:50;;;;;;;3.17;2.80;;;;;;;;;;5108620;27;20303;-60
2021/04/27 02:12:15;;;;;;;5.37;3.20;;;;;;;;;;5102999;27;20310;-58
2021/04/27 02:14:41;;;;;;;3.80;2.90;;;;;;;;;;5106197;27;20212;-60
2021/04/27 02:17:30;;;;;;;5.13;3.40;;;;;;;;;;5110169;27;20227;-60
2021/04/27 02:19:56;;;;;;;2.93;2.63;;;;;;;;;;5102252;27;20423;-60
2021/04/27 02:22:23;;;;;;;2.97;2.40;;;;;;;;;;5109464;27;20503;-60
2021/04/27 02:24:50;;;;;;;3.13;2.50;;;;;;;;;;5115274;27;20298;-61
2021/04/27 02:27:15;;;;;;;4.10;2.73;;;;;;;;;;5102745;27;20453;-61
2021/04/27 02:29:41;;;;;;;2.60;2.17;;;;;;;;;;5110357;27;20513;-61
2021/04/27 02:32:06;;;;;;;3.43;2.60;;;;;;;;;;5102627;27;20648;-60
2021/04/27 02:34:31;;;;;;;13.60;7.80;;;;;;;;;;5104342;27;20223;-61
2021/04/27 02:36:57;;;;;;;14.10;8.43;;;;;;;;;;5113706;27;20681;-61
2021/04/27 02:39:23;;;;;;;9.93;5.10;;;;;;;;;;5104382;27;20226;-61
2021/04/27 02:41:49;;;;;;;4.87;3.50;;;;;;;;;;5110505;27;20327;-60
2021/04/27 02:44:14;;;;;;;5.00;3.90;;;;;;;;;;5109942;27;20924;-61
2021/04/27 02:46:42;;;;;;;5.47;3.27;;;;;;;;;;5103480;27;20643;-61
2021/04/27 02:49:07;;;;;;;4.20;2.90;;;;;;;;;;5103188;27;20218;-62
2021/04/27 02:51:32;;;;;;;3.17;2.50;;;;;;;;;;5110389;27;20524;-61
2021/04/27 02:53:58;;;;;;;3.63;2.73;;;;;;;;;;5099402;27;20572;-61
2021/04/27 02:56:24;;;;;;;3.23;2.50;;;;;;;;;;5109293;27;20229;-61
2021/04/27 02:58:50;;;;;;;4.00;2.73;;;;;;;;;;5108398;27;20464;-61
2021/04/27 03:01:15;;;;;;;4.07;3.00;;;;;;;;;;5116704;27;20504;-61
2021/04/27 03:03:41;;;;;;;4.10;2.40;;;;;;;;;;5103906;27;20225;-60
2021/04/27 03:06:07;;;;;;;3.60;2.50;;;;;;;;;;5116354;27;20230;-60
2021/04/27 03:08:32;;;;;;;2.70;2.50;;;;;;;;;;5115085;27;20230;-60
2021/04/27 03:10:57;;;;;;;2.77;2.13;;;;;;;;;;5103826;27;20308;-60
2021/04/27 03:13:22;;;;;;;2.90;2.03;;;;;;;;;;5102849;27;20234;-61
2021/04/27 03:15:48;;;;;;;3.20;2.33;;;;;;;;;;5109405;27;20572;-61
2021/04/27 03:18:13;;;;;;;3.80;2.73;;;;;;;;;;5109789;27;20557;-61
2021/04/27 03:20:42;;;;;;;3.17;2.37;;;;;;;;;;5103862;27;20218;-60
2021/04/27 03:23:07;;;;;;;2.40;1.93;;;;;;;;;;5115199;27;20226;-60
2021/04/27 03:25:33;;;;;;;3.00;2.53;;;;;;;;;;5104318;27;20460;-61
2021/04/27 03:27:58;;;;;;;3.00;2.70;;;;;;;;;;5109071;27;20596;-61
2021/04/27 03:30:23;;;;;;;3.00;2.67;;;;;;;;;;5109081;27;20214;-61
2021/04/27 03:32:49;;;;;;;4.23;2.37;;;;;;;;;;5108811;27;20238;-60
2021/04/27 03:35:15;;;;;;;4.40;3.10;;;;;;;;;;5102970;27;20662;-60
2021/04/27 03:37:41;;;;;;;3.07;2.40;;;;;;;;;;5102526;27;20223;-60
2021/04/27 03:40:09;;;;;;;4.60;2.20;;;;;;;;;;5108403;27;20491;-61
2021/04/27 03:42:34;;;;;;;2.50;2.30;;;;;;;;;;5109426;27;20460;-61
2021/04/27 03:45:00;;;;;;;3.07;2.37;;;;;;;;;;5102894;27;20467;-61
2021/04/27 03:47:26;;;;;;;2.30;2.03;;;;;;;;;;5101138;28;20290;-60
2021/04/27 03:49:51;;;;;;;4.03;2.90;;;;;;;;;;5108383;27;20276;-61
2021/04/27 03:52:17;;;;;;;5.10;2.53;;;;;;;;;;5108784;27;20305;-61
2021/04/27 03:54:42;;;;;;;4.40;2.70;;;;;;;;;;5103234;27;20317;-61
2021/04/27 03:57:07;;;;;;;5.80;2.50;;;;;;;;;;5101734;27;20261;-61
2021/04/27 03:59:32;;;;;;;8.17;2.67;;;;;;;;;;5115896;27;20324;-61
2021/04/27 04:01:58;;;;;;;4.70;2.33;;;;;;;;;;5115093;27;20224;-61
2021/04/27 04:04:23;;;;;;;4.20;2.10;;;;;;;;;;5103614;27;20219;-59
2021/04/27 04:06:49;;;;;;;7.90;2.60;;;;;;;;;;5115731;27;20607;-61
2021/04/27 04:09:14;;;;;;;5.97;3.00;;;;;;;;;;5108711;27;20221;-61
2021/04/27 04:11:39;;;;;;;3.63;2.50;;;;;;;;;;5108364;27;20733;-61
2021/04/27 04:14:05;;;;;;;5.40;2.60;;;;;;;;;;5100440;27;20272;-60
2021/04/27 04:16:30;;;;;;;4.73;2.93;;;;;;;;;;5101947;27;20218;-61
2021/04/27 04:18:56;;;;;;;6.90;3.27;;;;;;;;;;5108536;27;20239;-61
2021/04/27 04:21:23;;;;;;;3.30;2.80;;;;;;;;;;5105913;28;20698;-60
2021/04/27 04:23:48;;;;;;;6.20;2.57;;;;;;;;;;5108590;27;20225;-61
2021/04/27 04:26:14;;;;;;;6.17;3.37;;;;;;;;;;5107546;27;20463;-61
2021/04/27 04:28:40;;;;;;;3.90;3.30;;;;;;;;;;5109412;27;20249;-61
2021/04/27 04:31:06;;;;;;;6.93;2.60;;;;;;;;;;5102536;27;20443;-60
2021/04/27 04:33:31;;;;;;;5.67;3.40;;;;;;;;;;5108200;27;20806;-60
2021/04/27 04:35:56;;;;;;;4.27;3.13;;;;;;;;;;5107333;27;20222;-61
2021/04/27 04:38:23;;;;;;;6.90;3.27;;;;;;;;;;5101189;27;20598;-60
2021/04/27 04:40:49;;;;;;;4.40;2.87;;;;;;;;;;5102600;27;20252;-61
2021/04/27 04:43:16;;;;;;;3.50;2.60;;;;;;;;;;5107743;27;20468;-60
2021/04/27 04:45:42;;;;;;;3.20;2.70;;;;;;;;;;5107775;27;20463;-61
2021/04/27 04:48:07;;;;;;;3.00;2.70;;;;;;;;;;5100775;27;20471;-60
2021/04/27 04:50:32;;;;;;;3.20;2.80;;;;;;;;;;5102263;27;20250;-61
2021/04/27 04:52:57;;;;;;;3.00;2.70;;;;;;;;;;5108370;27;20239;-61
2021/04/27 04:55:23;;;;;;;4.93;3.20;;;;;;;;;;5106443;27;20302;-60
2021/04/27 04:57:48;;;;;;;5.40;3.07;;;;;;;;;;5096824;27;20658;-60
2021/04/27 05:00:16;;;;;;;4.77;3.27;;;;;;;;;;5106932;27;20235;-59
2021/04/27 05:02:41;;;;;;;5.03;2.87;;;;;;;;;;5108059;27;20282;-61
2021/04/27 05:05:07;;;;;;;4.13;3.30;;;;;;;;;;5107984;27;20461;-60
2021/04/27 05:07:40;;;;;;;4.43;2.30;;;;;;;;;;5114328;27;20223;-61
2021/04/27 05:10:06;;;;;;;3.93;2.80;;;;;;;;;;5100293;27;20468;-61
2021/04/27 05:12:31;;;;;;;3.27;2.40;;;;;;;;;;5107511;27;20755;-61
2021/04/27 05:14:56;;;;;;;2.77;2.40;;;;;;;;;;5107830;27;20237;-60
2021/04/27 05:17:22;;;;;;;6.17;2.80;;;;;;;;;;5100617;27;20236;-60
2021/04/27 05:19:47;;;;;;;3.97;2.57;;;;;;;;;;5101281;27;20230;-61
2021/04/27 05:22:12;;;;;;;4.00;2.30;;;;;;;;;;5113994;27;20252;-60
2021/04/27 05:24:38;;;;;;;3.90;2.20;;;;;;;;;;5101306;27;20211;-60
2021/04/27 05:27:07;;;;;;;5.20;2.93;;;;;;;;;;5107313;27;20223;-60
2021/04/27 05:29:32;;;;;;;4.40;3.30;;;;;;;;;;5114380;27;20206;-61
2021/04/27 05:31:58;;;;;;;4.03;2.57;;;;;;;;;;5100064;28;20978;-61
2021/04/27 05:34:23;;;;;;;6.37;3.33;;;;;;;;;;5100967;27;20228;-61
2021/04/27 05:36:49;;;;;;;2.90;2.23;;;;;;;;;;5107469;27;20226;-60
2021/04/27 05:39:14;;;;;;;3.50;2.33;;;;;;;;;;5106035;27;20219;-60
2021/04/27 05:41:40;;;;;;;4.30;2.70;;;;;;;;;;5100589;27;20264;-61
2021/04/27 05:44:07;;;;;;;3.10;2.47;;;;;;;;;;5101264;27;20234;-59
2021/04/27 05:46:32;;;;;;;2.53;2.33;;;;;;;;;;5107411;27;20431;-61
2021/04/27 05:48:57;;;;;;;3.03;2.27;;;;;;;;;;5106221;27;20464;-61
2021/04/27 05:51:23;;;;;;;4.27;2.33;;;;;;;;;;5099903;27;20219;-61
2021/04/27 05:53:48;;;;;;;5.50;2.67;;;;;;;;;;5102421;27;20321;-61
2021/04/27 05:56:13;;;;;;;5.33;2.40;;;;;;;;;;5106875;27;20248;-61
2021/04/27 05:58:39;;;;;;;3.57;2.53;;;;;;;;;;5104871;27;20219;-60
2021/04/27 06:01:04;;;;;;;5.27;2.73;;;;;;;;;;5113732;28;20300;-61
2021/04/27 06:03:32;;;;;;;7.00;2.40;;;;;;;;;;5100892;27;20800;-61
2021/04/27 06:05:57;;;;;;;7.27;2.43;;;;;;;;;;5113944;27;20219;-60
2021/04/27 06:08:22;;;;;;;6.60;3.17;;;;;;;;;;5113677;27;20831;-60
2021/04/27 06:10:48;;;;;;;3.20;2.33;;;;;;;;;;5100268;27;20224;-60
2021/04/27 06:13:13;;;;;;;3.87;3.00;;;;;;;;;;5100049;27;20226;-61
2021/04/27 06:15:39;;;;;;;3.40;2.83;;;;;;;;;;5107112;27;20585;-60
2021/04/27 06:18:04;;;;;;;3.50;2.67;;;;;;;;;;5106321;27;20234;-61
2021/04/27 06:20:30;;;;;;;9.13;3.07;;;;;;;;;;5099742;27;20629;-60
2021/04/27 06:22:55;;;;;;;4.17;2.47;;;;;;;;;;5113730;27;20227;-61
2021/04/27 06:25:20;;;;;;;3.40;2.73;;;;;;;;;;5099701;27;20667;-61
2021/04/27 06:27:45;;;;;;;5.03;2.80;;;;;;;;;;5107661;27;20247;-60
2021/04/27 06:30:12;;;;;;;4.00;3.23;;;;;;;;;;5108039;27;20219;-61
2021/04/27 06:32:37;;;;;;;3.60;2.60;;;;;;;;;;5105046;27;20250;-61
2021/04/27 06:35:04;;;;;;;3.63;2.77;;;;;;;;;;5099727;27;20477;-60
2021/04/27 06:37:29;;;;;;;3.20;2.80;;;;;;;;;;5101852;27;20224;-61
2021/04/27 06:39:54;;;;;;;4.33;2.70;;;;;;;;;;5107085;27;20507;-61
2021/04/27 06:42:21;;;;;;;2.67;2.43;;;;;;;;;;5103652;27;20532;-61
2021/04/27 06:44:47;;;;;;;3.53;2.83;;;;;;;;;;5101766;27;20226;-61
2021/04/27 06:47:12;;;;;;;4.13;2.40;;;;;;;;;;5106608;27;20533;-60
2021/04/27 06:49:38;;;;;;;3.77;2.40;;;;;;;;;;5113265;27;20444;-61
2021/04/27 06:52:05;;;;;;;3.13;2.50;;;;;;;;;;5107396;27;20224;-61
2021/04/27 06:54:31;;;;;;;4.13;2.00;;;;;;;;;;5109848;27;20234;-61
2021/04/27 06:56:56;;;;;;;2.23;1.67;;;;;;;;;;5107027;27;20466;-61
2021/04/27 06:59:24;;;;;;;3.30;2.20;;;;;;;;;;5105649;27;20218;-61
2021/04/27 07:01:49;;;;;;;4.70;2.40;;;;;;;;;;5116992;27;20605;-61
2021/04/27 07:04:15;;;;;;;3.00;2.10;;;;;;;;;;5103515;27;20468;-62
2021/04/27 07:06:40;;;;;;;5.20;2.80;;;;;;;;;;5116959;27;20225;-61
2021/04/27 07:09:05;;;;;;;2.87;2.10;;;;;;;;;;5110983;27;20293;-61
2021/04/27 07:11:31;;;;;;;2.33;1.80;;;;;;;;;;5108118;27;20318;-61
2021/04/27 07:14:00;;;;;;;2.50;2.13;;;;;;;;;;5102775;27;20237;-62
2021/04/27 07:16:25;;;;;;;3.33;2.43;;;;;;;;;;5103813;27;20434;-61
2021/04/27 07:18:50;;;;;;;6.37;2.30;;;;;;;;;;5109625;27;20464;-61
2021/04/27 07:21:18;;;;;;;4.50;1.90;;;;;;;;;;5108327;27;20220;-61
2021/04/27 07:23:43;;;;;;;3.00;2.20;;;;;;;;;;5110483;27;20544;-61
2021/04/27 07:26:09;;;;;;;2.60;2.40;;;;;;;;;;5108252;27;20437;-62
2021/04/27 07:28:34;;;;;;;4.87;3.63;;;;;;;;;;5109266;27;20300;-60
2021/04/27 07:30:59;;;;;;;3.97;2.60;;;;;;;;;;5104254;27;20212;-62
2021/04/27 07:33:25;;;;;;;4.10;3.60;;;;;;;;;;5100056;27;20236;-61
2021/04/27 07:35:50;;;;;;;5.50;3.00;;;;;;;;;;5104942;27;20287;-61
2021/04/27 07:38:15;;;;;;;4.33;2.90;;;;;;;;;;5108752;27;20229;-62
2021/04/27 07:40:41;;;;;;;4.40;3.60;;;;;;;;;;5088711;28;20211;-61
2021/04/27 07:43:06;;;;;;;3.50;2.50;;;;;;;;;;5102376;27;20309;-61
2021/04/27 07:45:34;;;;;;;2.17;1.97;;;;;;;;;;5105433;27;20302;-61
2021/04/27 07:48:04;;;;;;;3.60;1.80;;;;;;;;;;5109145;27;20223;-61
2021/04/27 07:50:30;;;;;;;2.87;2.50;;;;;;;;;;5106140;27;20434;-62
2021/04/27 07:52:58;;;;;;;4.00;2.37;;;;;;;;;;5102254;27;20444;-61
2021/04/27 07:55:23;;;;;;;2.33;2.10;;;;;;;;;;5104263;27;20219;-61
2021/04/27 07:57:49;;;;;;;3.53;2.17;;;;;;;;;;5105388;27;20951;-62
2021/04/27 08:00:15;;;;;;;2.47;2.27;;;;;;;;;;5115490;27;20545;-61
2021/04/27 08:02:40;;;;;;;5.37;3.00;;;;;;;;;;5101735;27;20219;-61
2021/04/27 08:05:07;;;;;;;3.10;2.47;;;;;;;;;;5115307;27;20737;-62
2021/04/27 08:07:32;;;;;;;2.87;2.50;;;;;;;;;;5108227;27;20231;-62
2021/04/27 08:09:57;;;;;;;2.60;2.40;;;;;;;;;;5107895;27;20457;-62
2021/04/27 08:12:23;;;;;;;2.53;2.33;;;;;;;;;;5100201;28;20227;-60
2021/04/27 08:14:48;;;;;;;1.90;1.70;;;;;;;;;;5103645;27;20225;-61
2021/04/27 08:17:13;;;;;;;3.33;2.23;;;;;;;;;;5114286;27;20224;-61
2021/04/27 08:19:39;;;;;;;2.83;2.20;;;;;;;;;;5114708;27;20303;-61
2021/04/27 08:22:05;;;;;;;2.33;1.70;;;;;;;;;;5115387;28;20224;-60
2021/04/27 08:24:31;;;;;;;2.60;1.97;;;;;;;;;;5103060;27;20701;-61
2021/04/27 08:26:57;;;;;;;3.90;1.87;;;;;;;;;;5108712;27;20449;-61
2021/04/27 08:29:22;;;;;;;5.77;2.43;;;;;;;;;;5113527;27;20431;-62
2021/04/27 08:31:47;;;;;;;5.00;3.10;;;;;;;;;;5110170;27;20340;-61
2021/04/27 08:34:13;;;;;;;2.83;1.80;;;;;;;;;;5114275;27;20550;-61
2021/04/27 08:36:38;;;;;;;4.70;2.03;;;;;;;;;;5109943;27;20545;-62
2021/04/27 08:39:04;;;;;;;2.20;1.83;;;;;;;;;;5105843;27;20210;-62
2021/04/27 08:41:29;;;;;;;2.23;1.60;;;;;;;;;;5110292;27;20243;-62
2021/04/27 08:43:54;;;;;;;3.60;2.27;;;;;;;;;;5106040;27;20306;-61
2021/04/27 08:46:20;;;;;;;2.10;1.77;;;;;;;;;;5100688;27;20343;-61
2021/04/27 08:48:45;;;;;;;3.77;2.30;;;;;;;;;;5114641;27;20230;-61
2021/04/27 08:51:12;;;;;;;5.47;2.20;;;;;;;;;;5100926;27;20564;-62
2021/04/27 08:53:40;;;;;;;3.40;1.70;;;;;;;;;;5103459;27;20457;-62
2021/04/27 08:56:05;;;;;;;3.00;2.33;;;;;;;;;;5107695;27;20447;-62
2021/04/27 08:58:30;;;;;;;2.13;1.57;;;;;;;;;;5104540;27;20439;-62
2021/04/27 09:00:55;;;;;;;4.03;2.33;;;;;;;;;;5109206;27;20317;-62
2021/04/27 09:03:21;;;;;;;1.87;1.70;;;;;;;;;;5105842;27;20230;-62
2021/04/27 09:05:46;;;;;;;2.73;1.80;;;;;;;;;;5114126;28;20258;-61
2021/04/27 09:08:12;;;;;;;2.30;1.60;;;;;;;;;;5113701;28;20238;-62
2021/04/27 09:10:45;;;;;;;3.20;1.80;;;;;;;;;;5114135;27;20226;-60
2021/04/27 09:13:17;;;;;;;3.20;1.70;;;;;;;;;;5114354;27;20227;-61
2021/04/27 09:15:47;;;;;;;2.40;1.50;;;;;;;;;;5134407;27;20487;-62
2021/04/27 09:18:29;;;;;;;2.77;2.00;;;;;;;;;;5134975;27;20560;-61
2021/04/27 09:21:06;;;;;;;2.80;1.70;;;;;;;;;;5107849;27;20903;-59
2021/04/27 09:23:32;;;;;;;1.80;1.50;;;;;;;;;;5103699;27;20514;-60
2021/04/27 09:26:17;;;;;;;3.40;2.23;;;;;;;;;;5106692;27;20453;-61
2021/04/27 09:28:44;;;;;;;2.90;1.93;;;;;;;;;;5114121;27;20475;-60
2021/04/27 09:31:28;;;;;;;3.93;2.23;;;;;;;;;;5114418;27;20471;-61
2021/04/27 09:34:26;;;;;;;5.03;2.00;;;;;;;;;;5101379;28;21066;-60
2021/04/27 09:36:57;;;;;;;2.07;1.90;;;;;;;;;;5113538;27;20454;-60
2021/04/27 09:39:34;;;;;;;2.93;2.03;;;;;;;;;;5114089;27;20469;-61
2021/04/27 09:42:09;;;;;;;2.30;1.67;;;;;;;;;;5101020;28;20442;-60
2021/04/27 09:44:40;;;;;;;3.20;1.70;;;;;;;;;;5112383;27;20952;-61
2021/04/27 09:47:12;;;;;;;4.90;2.00;;;;;;;;;;5101797;28;20472;-61
2021/04/27 09:49:38;;;;;;;1.70;1.60;;;;;;;;;;5100354;28;20461;-61
2021/04/27 09:52:10;;;;;;;2.00;1.67;;;;;;;;;;5103526;27;20451;-60
2021/04/27 09:54:56;;;;;;;2.50;2.30;;;;;;;;;;5107238;27;20223;-61
2021/04/27 09:57:30;;;;;;;1.77;1.60;;;;;;;;;;5107035;27;20598;-61
2021/04/27 09:59:55;;;;;;;2.13;1.40;;;;;;;;;;5103828;28;21473;-61
2021/04/27 10:02:21;;;;;;;2.43;1.57;;;;;;;;;;5110482;27;20459;-61
2021/04/27 10:04:49;;;;;;;2.47;2.00;;;;;;;;;;5099993;27;20211;-60
2021/04/27 10:07:16;;;;;;;2.23;2.03;;;;;;;;;;5110228;27;20466;-61
2021/04/27 10:09:43;;;;;;;3.63;2.00;;;;;;;;;;5102950;27;20458;-60
2021/04/27 10:12:08;;;;;;;2.70;2.27;;;;;;;;;;5110824;28;20476;-62
2021/04/27 10:14:34;;;;;;;2.20;1.73;;;;;;;;;;5111622;28;20560;-61
2021/04/27 10:17:00;;;;;;;1.60;1.50;;;;;;;;;;5113583;28;20595;-62
2021/04/27 10:19:26;;;;;;;1.60;1.50;;;;;;;;;;5116441;28;20515;-62
2021/04/27 10:21:51;;;;;;;2.33;2.13;;;;;;;;;;5117266;28;20461;-62
2021/04/27 10:24:20;;;;;;;2.90;2.20;;;;;;;;;;5117738;27;20352;-62
2021/04/27 10:26:47;;;;;;;2.53;1.83;;;;;;;;;;5116244;28;20291;-62
2021/04/27 10:29:21;;;;;;;2.80;1.97;;;;;;;;;;5117672;27;20860;-62
2021/04/27 10:32:07;;;;;;;2.70;1.70;;;;;;;;;;5117049;27;20448;-63
2021/04/27 10:34:32;;;;;;;2.50;1.90;;;;;;;;;;5117124;28;20461;-62
2021/04/27 10:36:57;;;;;;;2.63;1.70;;;;;;;;;;5117166;28;20483;-63
2021/04/27 10:39:42;;;;;;;7.63;1.60;;;;;;;;;;5117423;28;20644;-63
2021/04/27 10:42:19;;;;;;;2.10;1.90;;;;;;;;;;5117053;28;20215;-62
2021/04/27 10:45:05;;;;;;;2.70;1.80;;;;;;;;;;5116802;27;20476;-61
2021/04/27 10:47:42;;;;;;;2.07;1.63;;;;;;;;;;5117309;28;20535;-62
2021/04/27 10:50:08;;;;;;;2.50;2.30;;;;;;;;;;5117065;28;20558;-62
2021/04/27 10:52:35;;;;;;;2.13;1.63;;;;;;;;;;5116992;28;20977;-61
2021/04/27 10:55:22;;;;;;;2.80;1.50;;;;;;;;;;5116790;27;20246;-62
2021/04/27 10:57:47;;;;;;;1.50;1.40;;;;;;;;;;5116761;27;20445;-62
2021/04/27 11:00:45;;;;;;;3.80;2.17;;;;;;;;;;5117011;28;20479;-62
2021/04/27 11:03:15;;;;;;;2.00;1.60;;;;;;;;;;5076855;27;20677;-62
2021/04/27 11:05:52;;;;;;;3.40;2.20;;;;;;;;;;5116731;27;20932;-62
2021/04/27 11:08:17;;;;;;;1.97;1.70;;;;;;;;;;5136859;27;20857;-62
2021/04/27 11:10:44;;;;;;;2.23;2.03;;;;;;;;;;5137481;27;20524;-62
2021/04/27 11:13:10;;;;;;;2.17;1.97;;;;;;;;;;5136983;27;20217;-63
2021/04/27 11:15:37;;;;;;;2.40;2.10;;;;;;;;;;5137272;27;20980;-63
2021/04/27 11:18:08;;;;;;;2.53;2.33;;;;;;;;;;5136870;27;20587;-62
2021/04/27 11:20:52;;;;;;;3.23;2.27;;;;;;;;;;5137362;27;20445;-62
2021/04/27 11:23:56;;;;;;;3.33;2.57;;;;;;;;;;5136820;27;20835;-62
2021/04/27 11:26:38;;;;;;;3.40;2.10;;;;;;;;;;5136773;27;20442;-62
2021/04/27 11:29:22;;;;;;;3.03;2.07;;;;;;;;;;5135402;27;20452;-62
2021/04/27 11:32:08;;;;;;;2.53;2.20;;;;;;;;;;5137006;27;20462;-62
2021/04/27 11:35:00;;;;;;;1.90;1.70;;;;;;;;;;5136929;27;20460;-62
2021/04/27 11:37:28;;;;;;;2.47;2.00;;;;;;;;;;5136643;27;20972;-61
2021/04/27 11:39:55;;;;;;;3.27;2.47;;;;;;;;;;5136970;27;20547;-62
2021/04/27 11:42:24;;;;;;;1.90;1.67;;;;;;;;;;5136348;27;20449;-62
2021/04/27 11:44:54;;;;;;;2.00;1.80;;;;;;;;;;5136354;27;20520;-62
2021/04/27 11:47:19;;;;;;;3.20;2.33;;;;;;;;;;5136161;27;20448;-63
2021/04/27 11:49:50;;;;;;;4.03;2.60;;;;;;;;;;5136252;27;20460;-63
2021/04/27 11:52:36;;;;;;;3.83;2.30;;;;;;;;;;5136690;27;20217;-62
2021/04/27 11:55:03;;;;;;;3.40;2.13;;;;;;;;;;5135389;27;20453;-62
2021/04/27 11:57:29;;;;;;;6.03;2.63;;;;;;;;;;5136074;27;20509;-62
2021/04/27 11:59:59;;;;;;;2.30;2.10;;;;;;;;;;5135558;27;20925;-63
2021/04/27 12:02:29;;;;;;;2.97;2.37;;;;;;;;;;5136564;27;20217;-62
2021/04/27 12:04:55;;;;;;;3.67;2.50;;;;;;;;;;5129408;27;20532;-62
2021/04/27 12:07:25;;;;;;;2.50;2.17;;;;;;;;;;5136219;27;20477;-64
2021/04/27 12:09:53;;;;;;;2.50;2.30;;;;;;;;;;5136510;27;20560;-63
2021/04/27 12:12:18;;;;;;;3.00;2.47;;;;;;;;;;5136162;27;20530;-63
2021/04/27 12:14:51;;;;;;;2.20;2.00;;;;;;;;;;5137346;27;20547;-63
2021/04/27 12:17:31;;;;;;;2.57;2.37;;;;;;;;;;5136858;27;20225;-62
2021/04/27 12:20:03;;;;;;;2.43;1.90;;;;;;;;;;5125849;27;20452;-63
2021/04/27 12:22:29;;;;;;;2.90;2.20;;;;;;;;;;5136280;27;20477;-63
2021/04/27 12:24:54;;;;;;;4.03;2.13;;;;;;;;;;5136448;27;20452;-62
2021/04/27 12:27:21;;;;;;;2.77;2.10;;;;;;;;;;5137010;27;20214;-62
2021/04/27 12:30:08;;;;;;;3.50;2.40;;;;;;;;;;5137947;27;20296;-63
2021/04/27 12:32:35;;;;;;;2.30;2.10;;;;;;;;;;5136194;27;20450;-63
2021/04/27 12:35:01;;;;;;;2.13;1.87;;;;;;;;;;5137283;27;20455;-61
2021/04/27 12:37:29;;;;;;;3.83;2.37;;;;;;;;;;5136301;27;20932;-63
2021/04/27 12:39:55;;;;;;;3.53;2.17;;;;;;;;;;5136965;27;20221;-62
2021/04/27 12:42:22;;;;;;;2.50;2.30;;;;;;;;;;5136514;27;20447;-62
2021/04/27 12:45:04;;;;;;;2.80;2.50;;;;;;;;;;5137410;27;20230;-62
2021/04/27 12:47:32;;;;;;;2.60;2.40;;;;;;;;;;5138378;27;20931;-62
2021/04/27 12:50:01;;;;;;;2.40;2.20;;;;;;;;;;5138383;27;20780;-62
2021/04/27 12:52:28;;;;;;;3.97;2.20;;;;;;;;;;5138273;27;20473;-62
2021/04/27 12:55:20;;;;;;;2.77;2.50;;;;;;;;;;5137587;27;20777;-62
2021/04/27 12:57:46;;;;;;;3.00;2.73;;;;;;;;;;5132849;27;20448;-63
2021/04/27 13:00:14;;;;;;;4.73;2.60;;;;;;;;;;5137877;27;20436;-61
2021/04/27 13:02:40;;;;;;;3.63;2.83;;;;;;;;;;5137286;27;20548;-62
2021/04/27 13:05:09;;;;;;;2.50;2.30;;;;;;;;;;5129093;27;20520;-62
2021/04/27 13:07:35;;;;;;;2.67;1.93;;;;;;;;;;5117862;27;20590;-62
2021/04/27 13:10:04;;;;;;;5.97;2.20;;;;;;;;;;5117995;27;20561;-63
2021/04/27 13:12:30;;;;;;;5.73;2.97;;;;;;;;;;5116700;28;20837;-62
2021/04/27 13:14:58;;;;;;;2.83;2.60;;;;;;;;;;5124356;27;20450;-62
2021/04/27 13:17:33;;;;;;;3.40;2.20;;;;;;;;;;5119063;27;20459;-63
2021/04/27 13:20:17;;;;;;;2.90;2.17;;;;;;;;;;5118660;27;20455;-62
2021/04/27 13:22:48;;;;;;;2.67;2.10;;;;;;;;;;5134535;27;20468;-63
2021/04/27 13:25:15;;;;;;;4.03;2.37;;;;;;;;;;5134773;27;20463;-63
2021/04/27 13:27:43;;;;;;;2.70;2.20;;;;;;;;;;5135593;27;20452;-63
2021/04/27 13:30:10;;;;;;;4.43;2.43;;;;;;;;;;5136071;27;20455;-62
2021/04/27 13:32:37;;;;;;;2.43;2.23;;;;;;;;;;5135904;27;20885;-63
2021/04/27 13:35:33;;;;;;;2.37;2.17;;;;;;;;;;5136213;27;20452;-63
2021/04/27 13:37:59;;;;;;;3.03;2.47;;;;;;;;;;5135254;27;20470;-63
2021/04/27 13:40:25;;;;;;;3.97;3.67;;;;;;;;;;5136334;27;20536;-63
2021/04/27 13:42:53;;;;;;;4.40;3.97;;;;;;;;;;5135503;27;20512;-62
2021/04/27 13:45:19;;;;;;;3.30;2.30;;;;;;;;;;5136145;27;20785;-63
2021/04/27 13:47:44;;;;;;;2.73;2.53;;;;;;;;;;5135640;27;20463;-63
2021/04/27 13:50:11;;;;;;;2.53;2.33;;;;;;;;;;5134743;27;20455;-63
2021/04/27 13:52:36;;;;;;;2.73;2.40;;;;;;;;;;5137204;27;20229;-63
2021/04/27 13:55:02;;;;;;;3.60;2.40;;;;;;;;;;5140575;27;20451;-63
2021/04/27 13:57:27;;;;;;;4.23;2.60;;;;;;;;;;5139545;27;20214;-63
2021/04/27 13:59:52;;;;;;;2.43;2.23;;;;;;;;;;5139447;27;20210;-63
2021/04/27 14:02:17;;;;;;;2.77;2.00;;;;;;;;;;5138578;27;20301;-64
2021/04/27 14:04:43;;;;;;;3.60;2.10;;;;;;;;;;5131600;27;20225;-63
2021/04/27 14:07:08;;;;;;;2.40;2.20;;;;;;;;;;5137955;27;20305;-63
2021/04/27 14:09:33;;;;;;;3.20;2.10;;;;;;;;;;5138558;27;20305;-62
2021/04/27 14:11:58;;;;;;;2.63;2.33;;;;;;;;;;5138113;27;20670;-62
2021/04/27 14:14:24;;;;;;;2.70;2.23;;;;;;;;;;5138441;27;20297;-62
2021/04/27 14:16:49;;;;;;;3.90;2.40;;;;;;;;;;5138554;27;20233;-63
2021/04/27 14:19:14;;;;;;;2.83;2.50;;;;;;;;;;5137925;27;20233;-63
2021/04/27 14:21:40;;;;;;;2.23;2.03;;;;;;;;;;5138295;27;20215;-63
2021/04/27 14:24:05;;;;;;;3.03;2.60;;;;;;;;;;5138098;27;20298;-62
2021/04/27 14:26:30;;;;;;;2.70;2.27;;;;;;;;;;5138130;27;20660;-63
2021/04/27 14:28:56;;;;;;;2.67;2.33;;;;;;;;;;5138259;27;20572;-62
2021/04/27 14:31:21;;;;;;;4.20;2.23;;;;;;;;;;5137758;27;20293;-62
2021/04/27 14:33:46;;;;;;;2.60;2.40;;;;;;;;;;5136954;27;20230;-62
2021/04/27 14:36:11;;;;;;;4.23;2.37;;;;;;;;;;5137253;27;20333;-63
2021/04/27 14:38:38;;;;;;;4.53;2.53;;;;;;;;;;5137731;27;20229;-63
2021/04/27 14:41:03;;;;;;;2.40;2.20;;;;;;;;;;5137602;27;20660;-63
2021/04/27 14:43:28;;;;;;;5.57;2.80;;;;;;;;;;5137592;27;20543;-62
2021/04/27 14:45:54;;;;;;;3.17;2.70;;;;;;;;;;5137781;27;20218;-62
2021/04/27 14:48:20;;;;;;;2.20;2.00;;;;;;;;;;5137259;27;20298;-63